createdAt,value
2022-11-29T00:01:33.797Z,10.70
2022-11-29T00:04:01.296Z,10.60
2022-11-29T00:06:30.949Z,10.60
2022-11-29T00:09:02.022Z,10.70
2022-11-29T00:11:50.914Z,10.70
2022-11-29T00:14:19.186Z,10.70
2022-11-29T00:16:50.361Z,10.70
2022-11-29T00:19:17.001Z,10.60
2022-11-29T00:21:43.634Z,10.60
2022-11-29T00:24:10.308Z,10.60
2022-11-29T00:26:39.827Z,10.60
2022-11-29T00:29:06.691Z,10.60
2022-11-29T00:31:34.014Z,10.60
2022-11-29T00:34:03.400Z,10.60
2022-11-29T00:36:30.125Z,10.60
2022-11-29T00:38:56.795Z,10.60
2022-11-29T00:41:23.381Z,10.70
2022-11-29T00:43:50.037Z,10.70
2022-11-29T00:46:16.906Z,10.70
2022-11-29T00:48:43.561Z,10.70
2022-11-29T00:51:10.374Z,10.70
2022-11-29T00:53:37.686Z,10.70
2022-11-29T00:56:05.520Z,10.80
2022-11-29T00:58:33.230Z,10.80
2022-11-29T01:00:59.873Z,10.70
2022-11-29T01:03:26.542Z,10.70
2022-11-29T01:05:53.597Z,10.70
2022-11-29T01:08:20.317Z,10.70
2022-11-29T01:10:46.984Z,10.70
2022-11-29T01:13:13.635Z,10.70
2022-11-29T01:15:40.515Z,10.70
2022-11-29T01:18:07.159Z,10.60
2022-11-29T01:20:33.733Z,10.70
2022-11-29T01:23:00.337Z,10.70
2022-11-29T01:25:27.105Z,10.70
2022-11-29T01:27:54.642Z,10.70
2022-11-29T01:30:21.398Z,10.70
2022-11-29T01:32:48.051Z,10.70
2022-11-29T01:35:14.646Z,10.70
2022-11-29T01:37:41.263Z,10.70
2022-11-29T01:40:08.423Z,10.70
2022-11-29T01:42:35.066Z,10.70
2022-11-29T01:45:20.043Z,10.70
2022-11-29T01:47:49.178Z,10.70
2022-11-29T01:50:16.421Z,10.70
2022-11-29T01:52:43.750Z,10.70
2022-11-29T01:55:10.653Z,10.70
2022-11-29T01:57:40.585Z,10.70
2022-11-29T02:00:14.135Z,10.60
2022-11-29T02:02:48.821Z,10.60
2022-11-29T02:05:18.557Z,10.70
2022-11-29T02:07:48.340Z,10.60
2022-11-29T02:10:16.402Z,10.60
2022-11-29T02:13:11.663Z,10.60
2022-11-29T02:15:45.644Z,10.60
2022-11-29T02:18:22.434Z,10.60
2022-11-29T02:21:13.777Z,10.60
2022-11-29T02:23:58.624Z,10.60
2022-11-29T02:26:53.845Z,10.60
2022-11-29T02:29:48.211Z,10.60
2022-11-29T02:32:56.393Z,10.50
2022-11-29T02:35:47.209Z,10.50
2022-11-29T02:38:25.861Z,10.50
2022-11-29T02:41:14.455Z,10.50
2022-11-29T02:43:59.841Z,10.40
2022-11-29T02:47:01.771Z,10.30
2022-11-29T02:49:56.327Z,10.40
2022-11-29T02:53:04.445Z,10.40
2022-11-29T02:56:07.989Z,10.40
2022-11-29T02:59:12.708Z,10.40
2022-11-29T03:01:58.651Z,10.40
2022-11-29T03:04:32.795Z,10.30
2022-11-29T03:07:25.606Z,10.30
2022-11-29T03:10:04.099Z,10.20
2022-11-29T03:12:41.234Z,10.20
2022-11-29T03:15:41.366Z,10.20
2022-11-29T03:18:26.337Z,10.20
2022-11-29T03:20:55.697Z,10.20
2022-11-29T03:23:27.465Z,10.20
2022-11-29T03:25:59.511Z,10.20
2022-11-29T03:28:29.634Z,10.20
2022-11-29T03:31:06.992Z,10.10
2022-11-29T03:34:00.178Z,10.20
2022-11-29T03:37:17.223Z,10.20
2022-11-29T03:39:59.317Z,10.20
2022-11-29T03:42:49.066Z,10.20
2022-11-29T03:45:43.457Z,10.20
2022-11-29T03:48:23.733Z,10.20
2022-11-29T03:50:56.474Z,10.20
2022-11-29T03:53:42.207Z,10.20
2022-11-29T03:56:27.531Z,10.20
2022-11-29T03:59:13.279Z,10.20
2022-11-29T04:02:01.049Z,10.10
2022-11-29T04:04:48.894Z,10.20
2022-11-29T04:07:21.452Z,10.10
2022-11-29T04:10:08.988Z,10.10
2022-11-29T04:13:03.590Z,10.10
2022-11-29T04:16:03.023Z,10.10
2022-11-29T04:19:07.134Z,10.10
2022-11-29T04:22:11.170Z,10.10
2022-11-29T04:25:05.113Z,10.10
2022-11-29T04:27:43.559Z,10.10
2022-11-29T04:30:16.445Z,10.10
2022-11-29T04:33:20.631Z,10.10
2022-11-29T04:36:30.674Z,10.10
2022-11-29T04:39:05.794Z,10.10
2022-11-29T04:42:13.831Z,10.10
2022-11-29T04:45:06.510Z,10.10
2022-11-29T04:47:51.824Z,10.10
2022-11-29T04:50:27.130Z,10.10
2022-11-29T04:53:30.745Z,10.10
2022-11-29T04:56:21.365Z,10.10
2022-11-29T04:59:17.748Z,10.10
2022-11-29T05:02:13.647Z,10.10
2022-11-29T05:04:49.002Z,10.10
2022-11-29T05:07:27.477Z,10.10
2022-11-29T05:10:03.107Z,10.10
2022-11-29T05:12:53.106Z,10.00
2022-11-29T05:15:58.780Z,10.10
2022-11-29T05:18:28.582Z,10.10
2022-11-29T05:21:36.790Z,10.00
2022-11-29T05:24:21.979Z,10.00
2022-11-29T05:27:17.535Z,10.00
2022-11-29T05:29:59.197Z,10.00
2022-11-29T05:32:33.860Z,10.00
2022-11-29T05:35:08.734Z,10.00
2022-11-29T05:38:10.742Z,10.00
2022-11-29T05:40:56.729Z,10.00
2022-11-29T05:43:54.094Z,10.00
2022-11-29T05:46:25.049Z,10.00
2022-11-29T05:49:29.265Z,10.10
2022-11-29T05:52:05.998Z,10.10
2022-11-29T05:55:14.471Z,9.90
2022-11-29T05:58:02.422Z,9.90
2022-11-29T06:00:43.590Z,9.90
2022-11-29T06:03:47.572Z,9.90
2022-11-29T06:06:39.174Z,9.90
2022-11-29T06:09:26.134Z,9.90
2022-11-29T06:11:57.555Z,9.90
2022-11-29T06:14:45.661Z,10.00
2022-11-29T06:17:39.294Z,10.00
2022-11-29T06:20:19.931Z,10.00
2022-11-29T06:23:19.693Z,10.00
2022-11-29T06:26:07.923Z,9.90
2022-11-29T06:28:54.702Z,9.80
2022-11-29T06:31:27.642Z,9.70
2022-11-29T06:34:20.259Z,9.70
2022-11-29T06:37:11.071Z,9.80
2022-11-29T06:39:38.018Z,9.80
2022-11-29T06:42:04.701Z,9.80
2022-11-29T06:44:31.571Z,9.90
2022-11-29T06:47:16.638Z,9.90
2022-11-29T06:49:53.470Z,9.90
2022-11-29T06:52:30.474Z,9.90
2022-11-29T06:55:02.991Z,9.90
2022-11-29T06:58:06.306Z,9.90
2022-11-29T07:00:51.992Z,9.90
2022-11-29T07:03:42.082Z,9.90
2022-11-29T07:06:22.162Z,9.90
2022-11-29T07:09:09.782Z,9.90
2022-11-29T07:11:36.797Z,9.90
2022-11-29T07:14:03.717Z,9.90
2022-11-29T07:16:33.821Z,10.00
2022-11-29T07:19:09.122Z,10.00
2022-11-29T07:22:05.583Z,10.00
2022-11-29T07:24:43.081Z,9.90
2022-11-29T07:27:23.884Z,9.90
2022-11-29T07:30:05.058Z,9.90
2022-11-29T07:32:52.123Z,9.90
2022-11-29T07:35:43.357Z,9.90
2022-11-29T07:38:28.392Z,9.90
2022-11-29T07:41:08.866Z,9.90
2022-11-29T07:43:57.230Z,9.90
2022-11-29T07:46:25.487Z,9.90
2022-11-29T07:48:52.153Z,9.90
2022-11-29T07:51:18.794Z,9.90
2022-11-29T07:53:45.413Z,9.90
2022-11-29T07:56:16.308Z,10.00
2022-11-29T07:58:43.079Z,9.90
2022-11-29T08:01:09.744Z,9.90
2022-11-29T08:03:36.462Z,9.90
2022-11-29T08:06:03.807Z,9.90
2022-11-29T08:08:30.436Z,9.90
2022-11-29T08:10:57.034Z,10.00
2022-11-29T08:13:23.627Z,9.90
2022-11-29T08:15:50.501Z,9.90
2022-11-29T08:18:17.859Z,9.90
2022-11-29T08:20:46.147Z,9.90
2022-11-29T08:23:13.635Z,9.90
2022-11-29T08:25:40.677Z,9.80
2022-11-29T08:28:07.323Z,9.90
2022-11-29T08:30:33.959Z,9.80
2022-11-29T08:33:00.635Z,9.80
2022-11-29T08:35:27.413Z,9.90
2022-11-29T08:37:54.622Z,9.90
2022-11-29T08:40:21.360Z,9.90
2022-11-29T08:42:47.932Z,9.90
2022-11-29T08:45:14.657Z,9.80
2022-11-29T08:47:42.379Z,9.90
2022-11-29T08:50:14.210Z,9.80
2022-11-29T08:53:01.114Z,9.90
2022-11-29T08:55:31.652Z,9.90
2022-11-29T08:58:04.633Z,9.90
2022-11-29T09:00:32.906Z,9.90
2022-11-29T09:03:19.482Z,9.90
2022-11-29T09:05:46.126Z,9.90
2022-11-29T09:08:13.126Z,9.80
2022-11-29T09:10:40.783Z,9.80
2022-11-29T09:13:09.486Z,9.90
2022-11-29T09:15:41.785Z,9.90
2022-11-29T09:18:08.410Z,10.00
2022-11-29T09:20:35.443Z,10.40
2022-11-29T09:23:02.691Z,10.80
2022-11-29T09:25:29.306Z,10.90
2022-11-29T09:27:59.048Z,11.10
2022-11-29T09:30:26.401Z,11.40
2022-11-29T09:32:53.024Z,11.50
2022-11-29T09:35:19.647Z,11.60
2022-11-29T09:37:46.286Z,11.80
2022-11-29T09:40:19.486Z,11.80
2022-11-29T09:42:46.055Z,11.70
2022-11-29T09:45:24.215Z,11.80
2022-11-29T09:48:03.209Z,12.00
2022-11-29T09:50:34.193Z,12.10
2022-11-29T09:53:18.886Z,12.10
2022-11-29T09:56:05.496Z,12.00
2022-11-29T09:58:41.823Z,11.90
2022-11-29T10:01:14.190Z,11.80
2022-11-29T10:03:51.901Z,11.70
2022-11-29T10:06:25.417Z,11.90
2022-11-29T10:08:56.249Z,12.00
2022-11-29T10:11:36.814Z,12.00
2022-11-29T10:14:17.863Z,12.00
2022-11-29T10:16:50.845Z,12.00
2022-11-29T10:19:21.049Z,12.00
2022-11-29T10:21:58.984Z,11.80
2022-11-29T10:24:28.499Z,11.60
2022-11-29T10:26:55.373Z,11.40
2022-11-29T10:29:23.122Z,11.30
2022-11-29T10:31:49.980Z,11.20
2022-11-29T10:34:22.222Z,10.90
2022-11-29T10:37:13.964Z,10.90
2022-11-29T10:39:59.256Z,10.90
2022-11-29T10:42:47.151Z,10.90
2022-11-29T10:45:19.805Z,10.90
2022-11-29T10:47:47.747Z,11.00
2022-11-29T10:50:23.694Z,11.00
2022-11-29T10:52:50.342Z,11.00
2022-11-29T10:55:17.898Z,11.00
2022-11-29T10:58:11.018Z,11.10
2022-11-29T11:00:53.221Z,11.10
2022-11-29T11:03:31.873Z,11.10
2022-11-29T11:06:08.325Z,11.20
2022-11-29T11:08:36.267Z,11.20
2022-11-29T11:11:05.877Z,11.30
2022-11-29T11:13:33.706Z,11.40
2022-11-29T11:16:09.597Z,11.40
2022-11-29T11:18:38.566Z,11.20
2022-11-29T11:21:10.503Z,11.10
2022-11-29T11:23:45.376Z,11.30
2022-11-29T11:26:14.444Z,11.10
2022-11-29T11:28:49.452Z,11.20
2022-11-29T11:31:25.428Z,11.30
2022-11-29T11:33:52.063Z,11.30
2022-11-29T11:36:21.654Z,11.30
2022-11-29T11:39:11.628Z,11.40
2022-11-29T11:42:01.148Z,11.40
2022-11-29T11:44:50.255Z,11.40
2022-11-29T11:47:21.638Z,11.30
2022-11-29T11:49:51.711Z,11.30
2022-11-29T11:52:42.869Z,11.30
2022-11-29T11:55:21.820Z,11.30
2022-11-29T11:58:09.724Z,11.30
2022-11-29T12:01:04.017Z,11.30
2022-11-29T12:03:49.342Z,11.20
2022-11-29T12:06:27.908Z,11.20
2022-11-29T12:09:19.231Z,11.30
2022-11-29T12:12:04.383Z,11.50
2022-11-29T12:15:03.026Z,11.50
2022-11-29T12:17:52.661Z,11.50
2022-11-29T12:20:28.292Z,11.50
2022-11-29T12:23:13.026Z,11.50
2022-11-29T12:25:48.635Z,11.50
2022-11-29T12:28:20.692Z,11.50
2022-11-29T12:31:11.381Z,11.60
2022-11-29T12:34:05.406Z,11.60
2022-11-29T12:36:58.349Z,11.50
2022-11-29T12:39:52.341Z,11.50
2022-11-29T12:43:04.108Z,11.50
2022-11-29T12:45:33.574Z,11.40
2022-11-29T12:48:05.431Z,11.40
2022-11-29T12:50:44.227Z,11.60
2022-11-29T12:53:32.483Z,11.60
2022-11-29T12:56:22.008Z,11.60
2022-11-29T12:58:51.634Z,11.60
2022-11-29T13:01:27.250Z,11.60
2022-11-29T13:04:38.737Z,11.60
2022-11-29T13:07:22.744Z,11.70
2022-11-29T13:10:18.067Z,11.70
2022-11-29T13:12:56.506Z,11.70
2022-11-29T13:15:38.069Z,11.60
2022-11-29T13:18:40.407Z,11.70
2022-11-29T13:21:06.937Z,11.70
2022-11-29T13:24:14.737Z,11.60
2022-11-29T13:26:42.505Z,11.60
2022-11-29T13:29:15.646Z,11.60
2022-11-29T13:31:43.127Z,11.60
2022-11-29T13:34:16.132Z,11.60
2022-11-29T13:37:01.615Z,11.60
2022-11-29T13:39:52.779Z,11.60
2022-11-29T13:42:37.150Z,11.60
2022-11-29T13:45:09.645Z,11.60
2022-11-29T13:47:49.476Z,11.60
2022-11-29T13:50:43.706Z,11.50
2022-11-29T13:53:19.515Z,11.50
2022-11-29T13:56:01.356Z,11.50
2022-11-29T13:58:27.880Z,11.50
2022-11-29T14:01:14.391Z,11.50
2022-11-29T14:03:42.846Z,11.40
2022-11-29T14:06:38.045Z,11.40
2022-11-29T14:09:27.346Z,11.40
2022-11-29T14:12:18.819Z,11.40
2022-11-29T14:14:58.199Z,11.30
2022-11-29T14:17:35.650Z,11.30
2022-11-29T14:20:28.395Z,11.40
2022-11-29T14:23:04.070Z,11.40
2022-11-29T14:28:18.335Z,11.40
2022-11-29T14:30:44.865Z,11.40
2022-11-29T14:33:21.130Z,11.40
2022-11-29T14:35:58.668Z,11.40
2022-11-29T14:38:41.288Z,11.40
2022-11-29T14:41:38.630Z,11.30
2022-11-29T14:44:15.962Z,11.30
2022-11-29T14:46:43.096Z,11.20
2022-11-29T14:49:22.284Z,11.20
2022-11-29T14:52:28.583Z,11.10
2022-11-29T14:55:16.544Z,11.10
2022-11-29T14:58:01.212Z,11.00
2022-11-29T15:00:32.617Z,11.00
2022-11-29T15:03:36.752Z,10.90
2022-11-29T15:06:06.076Z,10.90
2022-11-29T15:08:32.595Z,10.80
2022-11-29T15:11:26.053Z,10.80
2022-11-29T15:14:02.841Z,10.80
2022-11-29T15:16:38.759Z,10.60
2022-11-29T15:19:30.768Z,10.60
2022-11-29T15:22:20.041Z,10.60
2022-11-29T15:25:04.532Z,10.50
2022-11-29T15:27:31.245Z,10.50
2022-11-29T15:29:59.855Z,10.40
2022-11-29T15:32:30.945Z,10.40
2022-11-29T15:34:58.407Z,10.30
2022-11-29T15:37:30.847Z,10.20
2022-11-29T15:40:03.426Z,10.20
2022-11-29T15:42:40.470Z,10.10
2022-11-29T15:45:29.913Z,10.10
2022-11-29T15:48:16.336Z,10.00
2022-11-29T15:51:04.418Z,10.00
2022-11-29T15:54:00.436Z,10.00
2022-11-29T15:56:59.622Z,9.90
2022-11-29T15:59:40.768Z,9.80
2022-11-29T16:02:23.039Z,9.80
2022-11-29T16:04:54.282Z,9.80
2022-11-29T16:07:24.065Z,9.80
2022-11-29T16:10:01.658Z,9.80
2022-11-29T16:12:28.319Z,9.80
2022-11-29T16:14:58.002Z,9.80
2022-11-29T16:17:30.706Z,9.80
2022-11-29T16:20:06.194Z,9.80
2022-11-29T16:22:32.866Z,9.70
2022-11-29T16:25:04.094Z,9.70
2022-11-29T16:27:35.954Z,9.70
2022-11-29T16:30:03.630Z,9.70
2022-11-29T16:32:53.213Z,9.80
2022-11-29T16:35:24.476Z,9.80
2022-11-29T16:37:51.515Z,9.80
2022-11-29T16:40:25.420Z,9.80
2022-11-29T16:43:03.988Z,9.90
2022-11-29T16:45:41.344Z,9.90
2022-11-29T16:48:23.142Z,9.90
2022-11-29T16:51:13.202Z,9.90
2022-11-29T16:53:47.544Z,10.00
2022-11-29T16:56:16.541Z,10.00
2022-11-29T16:59:21.066Z,9.90
2022-11-29T17:01:32.768Z,9.90
2022-11-29T17:04:00.635Z,9.90
2022-11-29T17:06:28.972Z,9.90
2022-11-29T17:08:57.775Z,9.90
2022-11-29T17:11:24.816Z,9.90
2022-11-29T17:13:51.954Z,9.90
2022-11-29T17:16:21.502Z,10.00
2022-11-29T17:18:48.818Z,9.90
2022-11-29T17:21:17.680Z,10.00
2022-11-29T17:23:45.098Z,9.90
2022-11-29T17:26:11.745Z,9.90
2022-11-29T17:28:40.364Z,9.90
2022-11-29T17:31:15.126Z,9.90
2022-11-29T17:33:42.139Z,9.90
2022-11-29T17:36:11.208Z,9.90
2022-11-29T17:38:38.066Z,9.90
2022-11-29T17:41:13.387Z,9.90
2022-11-29T17:43:40.916Z,9.90
2022-11-29T17:46:19.482Z,9.90
2022-11-29T17:48:46.295Z,9.90
2022-11-29T17:51:43.696Z,9.90
2022-11-29T17:54:04.319Z,9.90
2022-11-29T17:56:31.291Z,9.90
2022-11-29T17:59:00.326Z,9.90
2022-11-29T18:01:29.143Z,9.90
2022-11-29T18:03:58.406Z,9.80
2022-11-29T18:06:27.185Z,9.80
2022-11-29T18:08:59.104Z,9.80
2022-11-29T18:11:42.920Z,9.80
2022-11-29T18:14:15.537Z,9.80
2022-11-29T18:16:42.760Z,9.70
2022-11-29T18:19:12.552Z,9.80
2022-11-29T18:21:39.449Z,9.80
2022-11-29T18:24:07.363Z,9.80
2022-11-29T18:26:35.333Z,9.80
2022-11-29T18:29:02.469Z,9.80
2022-11-29T18:31:31.602Z,9.60
2022-11-29T18:34:00.446Z,9.70
2022-11-29T18:36:30.023Z,9.70
2022-11-29T18:39:02.764Z,9.80
2022-11-29T18:41:30.521Z,9.80
2022-11-29T18:44:05.901Z,9.70
2022-11-29T18:46:33.271Z,9.80
2022-11-29T18:49:01.019Z,9.80
2022-11-29T18:51:29.189Z,9.80
2022-11-29T18:53:56.459Z,9.80
2022-11-29T18:56:25.425Z,9.80
2022-11-29T18:59:14.267Z,9.80
2022-11-29T19:01:42.441Z,9.80
2022-11-29T19:04:12.149Z,9.70
2022-11-29T19:06:40.246Z,9.80
2022-11-29T19:09:11.121Z,9.80
2022-11-29T19:11:37.822Z,9.80
2022-11-29T19:14:09.353Z,9.80
2022-11-29T19:16:35.919Z,9.80
2022-11-29T19:19:02.620Z,9.80
2022-11-29T19:21:31.943Z,9.80
2022-11-29T19:24:13.931Z,9.80
2022-11-29T19:26:42.838Z,9.80
2022-11-29T19:29:09.805Z,9.80
2022-11-29T19:31:39.146Z,9.80
2022-11-29T19:34:06.270Z,9.80
2022-11-29T19:36:32.851Z,9.90
2022-11-29T19:39:01.412Z,9.90
2022-11-29T19:41:30.370Z,9.80
2022-11-29T19:43:59.390Z,9.90
2022-11-29T19:46:28.671Z,9.90
2022-11-29T19:48:56.914Z,9.90
2022-11-29T19:51:24.846Z,9.90
2022-11-29T19:53:54.093Z,9.90
2022-11-29T19:56:21.154Z,9.90
2022-11-29T19:58:47.789Z,9.90
2022-11-29T20:01:16.919Z,9.90
2022-11-29T20:03:44.907Z,9.90
2022-11-29T20:06:13.530Z,9.90
2022-11-29T20:08:41.002Z,9.90
2022-11-29T20:11:26.158Z,9.90
2022-11-29T20:13:57.594Z,9.90
2022-11-29T20:16:25.084Z,9.90
2022-11-29T20:18:52.892Z,9.80
2022-11-29T20:21:31.527Z,9.80
2022-11-29T20:24:03.320Z,9.90
2022-11-29T20:26:30.536Z,9.90
2022-11-29T20:28:57.180Z,9.80
2022-11-29T20:31:24.050Z,9.80
2022-11-29T20:33:52.704Z,9.80
2022-11-29T20:36:37.615Z,9.80
2022-11-29T20:39:34.980Z,9.80
2022-11-29T20:42:46.281Z,9.80
2022-11-29T20:45:14.593Z,9.80
2022-11-29T20:47:50.586Z,9.70
2022-11-29T20:50:23.850Z,9.70
2022-11-29T20:53:14.462Z,9.70
2022-11-29T20:55:46.442Z,9.70
2022-11-29T20:58:15.259Z,9.60
2022-11-29T21:00:41.900Z,9.60
2022-11-29T21:03:08.464Z,9.60
2022-11-29T21:05:37.788Z,9.60
2022-11-29T21:08:04.673Z,9.60
2022-11-29T21:10:31.310Z,9.60
2022-11-29T21:12:58.314Z,9.70
2022-11-29T21:15:25.213Z,9.70
2022-11-29T21:17:52.503Z,9.70
2022-11-29T21:20:24.601Z,9.60
2022-11-29T21:23:06.211Z,9.60
2022-11-29T21:25:48.270Z,9.60
2022-11-29T21:28:15.474Z,9.70
2022-11-29T21:30:43.093Z,9.70
2022-11-29T21:33:11.320Z,9.70
2022-11-29T21:35:39.820Z,9.80
2022-11-29T21:38:10.670Z,9.70
2022-11-29T21:40:37.270Z,9.80
2022-11-29T21:43:03.855Z,9.80
2022-11-29T21:45:30.451Z,9.80
2022-11-29T21:48:00.705Z,9.80
2022-11-29T21:50:27.312Z,9.80
2022-11-29T21:52:53.923Z,9.80
2022-11-29T21:55:20.525Z,9.80
2022-11-29T21:57:47.110Z,9.90
2022-11-29T22:00:14.347Z,9.90
2022-11-29T22:02:41.120Z,9.90
2022-11-29T22:05:09.470Z,9.90
2022-11-29T22:07:36.159Z,9.90
2022-11-29T22:10:09.984Z,9.90
2022-11-29T22:12:45.725Z,9.90
2022-11-29T22:15:24.243Z,9.90
2022-11-29T22:17:51.717Z,9.90
2022-11-29T22:20:18.334Z,9.80
2022-11-29T22:22:45.323Z,9.80
2022-11-29T22:25:11.940Z,9.90
2022-11-29T22:27:38.534Z,9.90
2022-11-29T22:30:06.066Z,9.90
2022-11-29T22:32:34.319Z,9.90
2022-11-29T22:35:01.113Z,9.90
2022-11-29T22:37:28.287Z,9.90
2022-11-29T22:39:54.942Z,9.90
2022-11-29T22:42:21.572Z,9.80
2022-11-29T22:44:48.421Z,9.80
2022-11-29T22:47:15.215Z,9.90
2022-11-29T22:49:42.038Z,9.90
2022-11-29T22:52:08.676Z,9.90
2022-11-29T22:54:35.295Z,9.90
2022-11-29T22:57:01.848Z,9.90
2022-11-29T22:59:28.438Z,9.90
2022-11-29T23:01:55.060Z,9.90
2022-11-29T23:04:21.651Z,9.90
2022-11-29T23:06:48.274Z,9.90
2022-11-29T23:09:19.746Z,9.80
2022-11-29T23:11:50.820Z,9.80
2022-11-29T23:14:17.690Z,9.80
2022-11-29T23:16:44.393Z,9.80
2022-11-29T23:19:11.021Z,9.80
2022-11-29T23:21:39.622Z,9.80
2022-11-29T23:24:06.755Z,9.80
2022-11-29T23:26:39.816Z,9.90
2022-11-29T23:29:10.274Z,9.80
2022-11-29T23:31:37.413Z,9.90
2022-11-29T23:34:04.559Z,9.80
2022-11-29T23:36:31.431Z,9.90
2022-11-29T23:38:58.089Z,9.90
2022-11-29T23:41:24.897Z,9.90
2022-11-29T23:43:51.513Z,9.90
2022-11-29T23:46:20.490Z,10.00
2022-11-29T23:48:48.134Z,10.00
2022-11-29T23:51:15.777Z,10.00
2022-11-29T23:53:42.688Z,10.10
2022-11-29T23:56:15.454Z,10.10
2022-11-29T23:58:43.027Z,10.10
